createdAt,value
2017-10-28T00:02:23.985Z,3.37
2017-10-28T00:04:51.555Z,3.00
2017-10-28T00:07:19.081Z,2.80
2017-10-28T00:09:46.633Z,2.87
2017-10-28T00:12:14.178Z,3.23
2017-10-28T00:14:42.508Z,3.23
2017-10-28T00:17:10.825Z,3.00
2017-10-28T00:19:38.349Z,3.10
2017-10-28T00:22:06.708Z,2.87
2017-10-28T00:24:35.038Z,3.00
2017-10-28T00:27:02.620Z,3.17
2017-10-28T00:29:30.153Z,2.20
2017-10-28T00:35:18.512Z,2.87
2017-10-28T00:37:46.093Z,2.50
2017-10-28T00:40:13.637Z,3.20
2017-10-28T00:42:41.206Z,2.42
2017-10-28T00:45:08.758Z,2.70
2017-10-28T00:47:36.326Z,2.33
2017-10-28T00:50:03.859Z,2.40
2017-10-28T00:52:32.186Z,2.17
2017-10-28T00:54:59.749Z,1.90
2017-10-28T00:57:27.290Z,2.87
2017-10-28T00:59:54.872Z,2.78
2017-10-28T01:02:22.423Z,2.58
2017-10-28T01:04:49.977Z,2.67
2017-10-28T01:07:17.524Z,2.63
2017-10-28T01:09:45.868Z,2.87
2017-10-28T01:12:13.413Z,2.00
2017-10-28T01:14:40.954Z,2.58
2017-10-28T01:17:08.514Z,2.95
2017-10-28T01:19:36.047Z,2.22
2017-10-28T01:22:03.622Z,3.33
2017-10-28T01:24:31.183Z,1.90
2017-10-28T01:26:59.512Z,2.70
2017-10-28T01:29:27.040Z,2.15
2017-10-28T01:31:54.614Z,1.77
2017-10-28T01:34:22.167Z,2.30
2017-10-28T01:36:49.762Z,2.30
2017-10-28T01:39:17.303Z,2.00
2017-10-28T01:41:44.844Z,3.00
2017-10-28T01:44:12.403Z,2.20
2017-10-28T01:46:39.943Z,2.65
2017-10-28T01:49:08.292Z,2.37
2017-10-28T01:51:35.831Z,2.63
2017-10-28T01:54:03.420Z,3.05
2017-10-28T01:56:30.975Z,2.85
2017-10-28T01:58:58.548Z,2.15
2017-10-28T02:01:26.085Z,2.78
2017-10-28T02:03:53.652Z,2.50
2017-10-28T02:06:21.955Z,2.08
2017-10-28T02:08:50.299Z,2.33
2017-10-28T02:11:17.842Z,2.42
2017-10-28T02:13:45.386Z,1.95
2017-10-28T02:16:13.709Z,2.60
2017-10-28T02:18:41.241Z,2.58
2017-10-28T02:21:08.810Z,1.92
2017-10-28T02:23:36.359Z,3.10
2017-10-28T02:26:03.927Z,2.70
2017-10-28T02:28:31.476Z,2.25
2017-10-28T02:30:59.030Z,1.90
2017-10-28T02:33:27.344Z,2.20
2017-10-28T02:35:54.928Z,1.75
2017-10-28T02:38:22.456Z,2.15
2017-10-28T02:40:50.025Z,2.90
2017-10-28T02:43:17.606Z,1.85
2017-10-28T02:45:45.162Z,3.13
2017-10-28T02:48:12.734Z,2.40
2017-10-28T02:50:40.266Z,2.70
2017-10-28T02:53:07.841Z,3.37
2017-10-28T02:55:35.378Z,1.98
2017-10-28T02:58:02.926Z,3.00
2017-10-28T03:00:31.226Z,3.00
2017-10-28T03:02:58.785Z,3.05
2017-10-28T03:05:26.353Z,2.92
2017-10-28T03:07:53.897Z,3.23
2017-10-28T03:10:21.467Z,2.75
2017-10-28T03:12:48.998Z,2.85
2017-10-28T03:15:17.329Z,2.45
2017-10-28T03:17:44.889Z,2.60
2017-10-28T03:20:12.452Z,3.03
2017-10-28T03:22:40.028Z,3.53
2017-10-28T03:25:07.572Z,2.60
2017-10-28T03:27:35.097Z,2.65
2017-10-28T03:30:03.448Z,3.03
2017-10-28T03:32:30.991Z,2.22
2017-10-28T03:34:58.561Z,3.28
2017-10-28T03:37:26.115Z,2.97
2017-10-28T03:39:53.668Z,3.30
2017-10-28T03:42:21.257Z,2.90
2017-10-28T03:44:48.804Z,3.80
2017-10-28T03:47:16.369Z,2.40
2017-10-28T03:49:43.901Z,2.80
2017-10-28T03:52:11.448Z,2.70
2017-10-28T03:54:39.040Z,2.58
2017-10-28T03:57:06.570Z,3.58
2017-10-28T03:59:34.140Z,2.97
2017-10-28T04:02:01.698Z,3.25
2017-10-28T04:04:29.269Z,2.95
2017-10-28T04:06:56.802Z,3.08
2017-10-28T04:09:25.128Z,3.30
2017-10-28T04:11:52.671Z,2.17
2017-10-28T04:14:20.244Z,2.35
2017-10-28T04:16:47.799Z,2.33
2017-10-28T04:19:15.343Z,3.47
2017-10-28T04:21:42.920Z,2.70
2017-10-28T04:24:10.476Z,3.15
2017-10-28T04:26:38.054Z,2.95
2017-10-28T04:29:05.612Z,2.58
2017-10-28T04:31:33.182Z,2.95
2017-10-28T04:34:00.728Z,2.58
2017-10-28T04:36:28.295Z,2.75
2017-10-28T04:38:55.846Z,3.35
2017-10-28T04:41:23.410Z,3.10
2017-10-28T04:43:50.968Z,2.95
2017-10-28T04:46:18.496Z,3.22
2017-10-28T04:48:46.056Z,3.90
2017-10-28T04:51:13.595Z,3.03
2017-10-28T04:53:41.909Z,3.30
2017-10-28T04:56:10.210Z,3.83
2017-10-28T04:58:37.765Z,4.03
2017-10-28T05:01:05.328Z,3.50
2017-10-28T05:03:32.899Z,3.35
2017-10-28T05:06:00.433Z,4.70
2017-10-28T05:08:28.777Z,4.10
2017-10-28T05:10:56.321Z,4.10
2017-10-28T05:13:23.877Z,4.37
2017-10-28T05:15:51.431Z,4.43
2017-10-28T05:18:19.001Z,5.37
2017-10-28T05:20:46.540Z,4.10
2017-10-28T05:23:14.106Z,5.00
2017-10-28T05:25:41.639Z,4.57
2017-10-28T05:28:09.992Z,5.78
2017-10-28T05:30:37.530Z,5.72
2017-10-28T05:33:05.079Z,5.25
2017-10-28T05:35:32.632Z,5.87
2017-10-28T05:38:00.171Z,5.00
2017-10-28T05:40:27.767Z,5.78
2017-10-28T05:42:55.305Z,6.28
2017-10-28T05:45:23.631Z,6.05
2017-10-28T05:47:51.185Z,4.57
2017-10-28T05:50:18.764Z,5.97
2017-10-28T05:52:46.308Z,5.75
2017-10-28T05:55:13.868Z,5.55
2017-10-28T05:57:41.412Z,6.35
2017-10-28T06:00:08.991Z,7.22
2017-10-28T06:02:36.524Z,5.65
2017-10-28T06:05:04.090Z,6.78
2017-10-28T06:07:31.647Z,7.10
2017-10-28T06:09:59.201Z,6.95
2017-10-28T06:12:27.498Z,7.22
2017-10-28T06:14:55.062Z,7.25
2017-10-28T06:17:22.597Z,6.70
2017-10-28T06:19:50.929Z,6.78
2017-10-28T06:22:18.463Z,7.97
2017-10-28T06:24:46.010Z,7.18
2017-10-28T06:27:13.564Z,7.55
2017-10-28T06:29:41.883Z,8.15
2017-10-28T06:32:09.452Z,8.15
2017-10-28T06:34:37.760Z,7.60
2017-10-28T06:37:05.338Z,7.22
2017-10-28T06:39:33.648Z,8.02
2017-10-28T06:42:01.234Z,7.85
2017-10-28T06:44:28.769Z,7.40
2017-10-28T06:46:56.322Z,8.23
2017-10-28T06:49:23.873Z,8.15
2017-10-28T06:51:52.186Z,6.97
2017-10-28T06:54:19.741Z,7.22
2017-10-28T06:56:47.300Z,7.93
2017-10-28T06:59:14.865Z,7.32
2017-10-28T07:01:42.417Z,8.73
2017-10-28T07:04:10.003Z,7.70
2017-10-28T07:06:37.568Z,7.97
2017-10-28T07:09:05.129Z,7.72
2017-10-28T07:11:32.786Z,7.22
2017-10-28T07:14:00.316Z,9.07
2017-10-28T07:16:28.637Z,8.60
2017-10-28T07:18:56.181Z,7.97
2017-10-28T07:21:23.759Z,7.60
2017-10-28T07:23:51.311Z,8.13
2017-10-28T07:26:18.888Z,7.95
2017-10-28T07:28:46.423Z,7.50
2017-10-28T07:31:13.982Z,7.32
2017-10-28T07:33:41.567Z,7.30
2017-10-28T07:36:09.111Z,8.50
2017-10-28T07:38:36.669Z,7.32
2017-10-28T07:41:04.212Z,8.05
2017-10-28T07:43:31.800Z,6.75
2017-10-28T07:45:59.355Z,7.00
2017-10-28T07:48:26.925Z,7.37
2017-10-28T07:50:54.488Z,7.65
2017-10-28T07:53:22.034Z,6.95
2017-10-28T07:55:49.676Z,8.23
2017-10-28T07:58:17.982Z,6.70
2017-10-28T08:00:45.560Z,7.07
2017-10-28T08:03:13.124Z,7.50
2017-10-28T08:05:40.680Z,7.10
2017-10-28T08:08:08.227Z,5.90
2017-10-28T08:10:35.788Z,6.28
2017-10-28T08:13:03.344Z,7.00
2017-10-28T08:15:30.898Z,6.80
2017-10-28T08:17:58.461Z,6.93
2017-10-28T08:20:26.016Z,6.73
2017-10-28T08:22:54.356Z,7.78
2017-10-28T08:25:21.924Z,6.97
2017-10-28T08:27:49.574Z,8.03
2017-10-28T08:30:17.101Z,7.20
2017-10-28T08:32:44.676Z,7.57
2017-10-28T08:35:12.210Z,7.37
2017-10-28T08:37:40.504Z,7.60
2017-10-28T08:40:08.085Z,7.83
2017-10-28T08:42:35.622Z,6.90
2017-10-28T08:45:03.209Z,6.90
2017-10-28T08:47:30.758Z,7.60
2017-10-28T08:49:58.340Z,6.57
2017-10-28T08:52:25.896Z,7.05
2017-10-28T08:54:53.483Z,8.93
2017-10-28T08:57:21.018Z,7.65
2017-10-28T08:59:48.573Z,7.60
2017-10-28T09:02:16.148Z,8.53
2017-10-28T09:04:43.706Z,7.35
2017-10-28T09:07:11.288Z,7.72
2017-10-28T09:09:38.928Z,6.65
2017-10-28T09:12:06.499Z,6.03
2017-10-28T09:14:34.817Z,7.20
2017-10-28T09:17:03.158Z,6.30
2017-10-28T09:19:30.717Z,6.40
2017-10-28T09:21:58.256Z,7.57
2017-10-28T09:24:25.837Z,6.57
2017-10-28T09:26:53.398Z,6.30
2017-10-28T09:29:20.953Z,7.10
2017-10-28T09:31:48.497Z,5.83
2017-10-28T09:34:16.058Z,6.03
2017-10-28T09:36:43.603Z,6.33
2017-10-28T09:39:11.946Z,5.57
2017-10-28T09:41:39.508Z,6.43
2017-10-28T09:44:07.064Z,6.60
2017-10-28T09:46:34.643Z,5.43
2017-10-28T09:49:02.191Z,5.70
2017-10-28T09:51:29.746Z,5.87
2017-10-28T09:53:57.276Z,5.75
2017-10-28T09:56:24.839Z,6.60
2017-10-28T09:58:52.394Z,5.70
2017-10-28T10:01:19.973Z,7.17
2017-10-28T10:03:47.543Z,5.70
2017-10-28T10:06:15.103Z,6.45
2017-10-28T10:08:42.679Z,6.25
2017-10-28T10:11:10.227Z,5.53
2017-10-28T10:13:37.808Z,6.45
2017-10-28T10:16:05.380Z,5.93
2017-10-28T10:18:33.021Z,5.97
2017-10-28T10:21:00.576Z,5.80
2017-10-28T10:23:28.145Z,5.63
2017-10-28T10:25:55.713Z,5.87
2017-10-28T10:28:23.250Z,7.20
2017-10-28T10:30:50.817Z,6.32
2017-10-28T10:33:18.383Z,6.93
2017-10-28T10:35:45.963Z,5.10
2017-10-28T10:38:13.515Z,5.30
2017-10-28T10:40:41.875Z,5.53
2017-10-28T10:43:09.422Z,6.78
2017-10-28T10:45:36.970Z,6.45
2017-10-28T10:48:05.304Z,6.10
2017-10-28T10:50:32.867Z,5.10
2017-10-28T10:53:00.424Z,5.27
2017-10-28T10:55:27.987Z,6.50
2017-10-28T10:57:55.589Z,5.57
2017-10-28T11:00:23.117Z,5.43
2017-10-28T11:02:50.703Z,5.63
2017-10-28T11:05:18.260Z,5.60
2017-10-28T11:07:45.816Z,5.37
2017-10-28T11:10:13.374Z,5.57
2017-10-28T11:12:40.911Z,5.10
2017-10-28T11:15:08.470Z,5.80
2017-10-28T11:17:36.035Z,6.90
2017-10-28T11:20:03.596Z,5.73
2017-10-28T11:22:31.159Z,5.77
2017-10-28T11:24:58.720Z,5.93
2017-10-28T11:27:26.299Z,5.33
2017-10-28T11:29:53.868Z,5.80
2017-10-28T11:32:21.429Z,5.03
2017-10-28T11:34:48.972Z,5.30
2017-10-28T11:37:16.541Z,5.10
2017-10-28T11:39:44.077Z,5.30
2017-10-28T11:42:11.631Z,10.57
2017-10-28T11:44:39.255Z,6.00
2017-10-28T11:47:06.793Z,5.93
2017-10-28T11:49:34.359Z,6.00
2017-10-28T11:52:01.964Z,5.60
2017-10-28T11:54:30.304Z,6.30
2017-10-28T11:56:57.844Z,4.90
2017-10-28T11:59:25.425Z,6.90
2017-10-28T12:01:52.992Z,8.27
2017-10-28T12:04:20.541Z,8.00
2017-10-28T12:06:48.107Z,6.33
2017-10-28T12:09:15.658Z,5.27
2017-10-28T12:11:43.216Z,5.80
2017-10-28T12:14:10.771Z,5.67
2017-10-28T12:16:38.339Z,5.83
2017-10-28T12:19:05.958Z,5.60
2017-10-28T12:21:34.287Z,7.33
2017-10-28T12:24:01.827Z,7.03
2017-10-28T12:26:29.384Z,5.10
2017-10-28T12:28:56.943Z,5.77
2017-10-28T12:31:24.510Z,5.77
2017-10-28T12:33:52.049Z,6.37
2017-10-28T12:36:20.392Z,5.57
2017-10-28T12:38:47.938Z,5.53
2017-10-28T12:41:15.480Z,5.47
2017-10-28T12:43:43.056Z,4.87
2017-10-28T12:46:10.590Z,4.50
2017-10-28T12:48:38.148Z,5.60
2017-10-28T12:51:05.685Z,6.47
2017-10-28T12:53:33.299Z,5.63
2017-10-28T12:56:00.860Z,5.53
2017-10-28T12:58:28.412Z,6.40
2017-10-28T13:00:55.954Z,5.43
2017-10-28T13:03:24.287Z,5.80
2017-10-28T13:05:51.831Z,6.60
2017-10-28T13:08:19.395Z,6.27
2017-10-28T13:10:46.926Z,5.47
2017-10-28T13:13:14.485Z,6.40
2017-10-28T13:15:42.029Z,5.57
2017-10-28T13:18:10.370Z,5.70
2017-10-28T13:20:37.976Z,5.77
2017-10-28T13:23:06.296Z,5.37
2017-10-28T13:25:33.840Z,4.83
2017-10-28T13:28:01.384Z,5.50
2017-10-28T13:30:29.699Z,4.77
2017-10-28T13:32:57.226Z,6.70
2017-10-28T13:35:25.549Z,5.63
2017-10-28T13:37:53.115Z,5.37
2017-10-28T13:40:20.696Z,6.30
2017-10-28T13:42:48.230Z,5.67
2017-10-28T13:45:15.781Z,5.80
2017-10-28T13:47:43.327Z,5.70
2017-10-28T13:50:10.904Z,6.37
2017-10-28T13:52:38.442Z,5.83
2017-10-28T13:55:06.011Z,6.27
2017-10-28T13:57:33.565Z,5.37
2017-10-28T14:00:01.126Z,5.33
2017-10-28T14:02:28.663Z,5.00
2017-10-28T14:04:56.252Z,4.83
2017-10-28T14:07:23.790Z,6.37
2017-10-28T14:09:52.102Z,6.07
2017-10-28T14:12:19.661Z,4.93
2017-10-28T14:14:47.736Z,4.40
2017-10-28T14:17:15.305Z,5.33
2017-10-28T14:19:42.856Z,4.20
2017-10-28T14:22:10.416Z,4.20
2017-10-28T14:24:37.945Z,4.90
2017-10-28T14:27:05.515Z,4.60
2017-10-28T14:29:33.837Z,3.80
2017-10-28T14:32:01.402Z,3.90
2017-10-28T14:34:28.942Z,3.77
2017-10-28T14:36:56.488Z,2.73
2017-10-28T14:39:24.814Z,3.10
2017-10-28T14:41:52.346Z,3.27
2017-10-28T14:44:19.901Z,3.00
2017-10-28T14:46:47.458Z,3.33
2017-10-28T14:49:15.793Z,2.90
2017-10-28T14:51:43.343Z,3.33
2017-10-28T14:54:10.903Z,3.40
2017-10-28T14:56:38.428Z,4.17
2017-10-28T14:59:06.003Z,5.67
2017-10-28T15:01:33.555Z,3.97
2017-10-28T15:04:01.126Z,3.07
2017-10-28T15:06:28.689Z,3.50
2017-10-28T15:08:56.282Z,3.97
2017-10-28T15:11:23.860Z,5.97
2017-10-28T15:13:51.413Z,4.03
2017-10-28T15:16:18.987Z,4.10
2017-10-28T15:18:46.540Z,5.43
2017-10-28T15:21:14.121Z,5.10
2017-10-28T15:23:42.437Z,4.80
2017-10-28T15:26:10.760Z,4.83
2017-10-28T15:28:38.315Z,5.60
2017-10-28T15:31:06.671Z,5.90
2017-10-28T15:33:34.225Z,6.10
2017-10-28T15:36:01.784Z,7.80
2017-10-28T15:38:29.365Z,7.60
2017-10-28T15:40:56.898Z,8.27
2017-10-28T15:43:24.449Z,9.73
2017-10-28T15:45:52.766Z,8.40
2017-10-28T15:48:20.315Z,9.30
2017-10-28T15:50:47.850Z,8.60
2017-10-28T15:53:16.190Z,10.27
2017-10-28T15:55:43.733Z,10.50
2017-10-28T15:58:11.276Z,10.00
2017-10-28T16:00:38.853Z,12.37
2017-10-28T16:03:06.399Z,12.15
2017-10-28T16:05:33.963Z,12.05
2017-10-28T16:08:01.507Z,13.15
2017-10-28T16:10:29.084Z,12.27
2017-10-28T16:12:56.631Z,13.80
2017-10-28T16:15:24.215Z,14.65
2017-10-28T16:17:51.775Z,13.40
2017-10-28T16:20:19.347Z,13.75
2017-10-28T16:22:46.928Z,13.93
2017-10-28T16:25:14.502Z,13.75
2017-10-28T16:27:42.075Z,13.20
2017-10-28T16:30:09.632Z,14.98
2017-10-28T16:32:37.224Z,13.35
2017-10-28T16:35:04.768Z,13.52
2017-10-28T16:37:33.100Z,13.50
2017-10-28T16:40:00.658Z,13.32
2017-10-28T16:42:28.993Z,14.45
2017-10-28T16:44:57.391Z,13.88
2017-10-28T16:47:24.946Z,14.98
2017-10-28T16:49:52.541Z,13.50
2017-10-28T16:52:20.107Z,13.20
2017-10-28T16:54:47.659Z,14.35
2017-10-28T16:57:15.238Z,15.80
2017-10-28T16:59:42.781Z,15.13
2017-10-28T17:02:10.342Z,12.90
2017-10-28T17:04:37.884Z,14.10
2017-10-28T17:07:06.224Z,12.87
2017-10-28T17:09:33.766Z,13.38
2017-10-28T17:12:01.342Z,12.47
2017-10-28T17:14:28.898Z,12.88
2017-10-28T17:16:56.445Z,13.30
2017-10-28T17:19:24.009Z,13.50
2017-10-28T17:21:51.553Z,12.90
2017-10-28T17:24:19.127Z,11.90
2017-10-28T17:26:46.670Z,12.95
2017-10-28T17:29:14.239Z,11.93
2017-10-28T17:31:41.788Z,13.23
2017-10-28T17:34:09.393Z,13.25
2017-10-28T17:36:36.960Z,12.77
2017-10-28T17:39:04.524Z,12.13
2017-10-28T17:41:32.108Z,12.98
2017-10-28T17:44:00.417Z,13.18
2017-10-28T17:46:27.972Z,12.43
2017-10-28T17:48:56.303Z,11.43
2017-10-28T17:51:23.878Z,12.95
2017-10-28T17:53:51.442Z,9.82
2017-10-28T17:56:19.042Z,11.27
2017-10-28T17:58:46.608Z,10.32
2017-10-28T18:01:14.235Z,10.53
2017-10-28T18:03:41.807Z,10.00
2017-10-28T18:06:10.145Z,10.77
2017-10-28T18:08:37.715Z,8.98
2017-10-28T18:11:05.283Z,9.40
2017-10-28T18:13:32.866Z,10.27
2017-10-28T18:16:01.169Z,9.43
2017-10-28T18:18:28.787Z,9.10
2017-10-28T18:20:56.336Z,8.98
2017-10-28T18:23:23.907Z,10.32
2017-10-28T18:25:51.466Z,9.57
2017-10-28T18:28:19.010Z,10.10
2017-10-28T18:30:46.570Z,9.52
2017-10-28T18:33:14.119Z,9.45
2017-10-28T18:35:41.683Z,10.00
2017-10-28T18:38:09.226Z,10.03
2017-10-28T18:40:36.800Z,11.23
2017-10-28T18:43:04.348Z,9.53
2017-10-28T18:45:31.888Z,9.77
2017-10-28T18:47:59.441Z,9.10
2017-10-28T18:50:26.991Z,10.77
2017-10-28T18:52:54.545Z,10.73
2017-10-28T18:55:22.086Z,13.60
2017-10-28T18:57:49.648Z,11.00
2017-10-28T19:00:17.195Z,10.80
2017-10-28T19:02:44.748Z,11.20
2017-10-28T19:05:12.325Z,10.50
2017-10-28T19:07:39.862Z,11.73
2017-10-28T19:10:08.214Z,11.00
2017-10-28T19:12:35.767Z,11.10
2017-10-28T19:15:03.349Z,11.23
2017-10-28T19:17:31.683Z,10.57
2017-10-28T19:19:59.238Z,12.17
2017-10-28T19:22:26.813Z,10.70
2017-10-28T19:24:54.355Z,11.00
2017-10-28T19:27:21.913Z,12.10
2017-10-28T19:29:49.452Z,13.73
2017-10-28T19:32:17.774Z,10.60
2017-10-28T19:34:45.309Z,12.20
2017-10-28T19:37:12.878Z,12.20
2017-10-28T19:39:40.419Z,11.23
2017-10-28T19:42:08.004Z,10.47
2017-10-28T19:44:35.536Z,12.07
2017-10-28T19:47:03.860Z,11.07
2017-10-28T19:49:31.411Z,13.07
2017-10-28T19:51:58.979Z,13.63
2017-10-28T19:54:26.517Z,15.27
2017-10-28T19:56:54.094Z,13.33
2017-10-28T19:59:21.642Z,13.80
2017-10-28T20:01:49.223Z,13.00
2017-10-28T20:04:16.761Z,13.63
2017-10-28T20:06:44.297Z,14.40
2017-10-28T20:09:11.975Z,13.13
2017-10-28T20:11:40.320Z,13.97
2017-10-28T20:14:07.885Z,16.47
2017-10-28T20:16:35.516Z,16.03
2017-10-28T20:19:03.094Z,15.10
2017-10-28T20:21:30.641Z,17.10
2017-10-28T20:23:58.199Z,17.23
2017-10-28T20:26:25.773Z,17.93
2017-10-28T20:28:53.353Z,18.87
2017-10-28T20:31:20.907Z,16.93
2017-10-28T20:33:48.506Z,17.60
2017-10-28T20:36:16.829Z,17.40
2017-10-28T20:38:44.375Z,17.43
2017-10-28T20:41:11.957Z,17.70
2017-10-28T20:43:39.523Z,16.50
2017-10-28T20:46:07.077Z,18.80
2017-10-28T20:48:34.605Z,17.83
2017-10-28T20:51:02.934Z,17.87
2017-10-28T20:53:30.471Z,16.80
2017-10-28T20:55:58.024Z,16.90
2017-10-28T20:58:25.581Z,16.97
2017-10-28T21:00:53.127Z,15.63
2017-10-28T21:03:21.444Z,15.90
2017-10-28T21:05:48.976Z,14.63
2017-10-28T21:08:17.306Z,16.20
2017-10-28T21:10:44.870Z,15.10
2017-10-28T21:13:12.427Z,15.60
2017-10-28T21:15:40.003Z,15.40
2017-10-28T21:18:07.571Z,13.17
2017-10-28T21:20:35.119Z,13.57
2017-10-28T21:23:02.658Z,13.23
2017-10-28T21:25:30.218Z,13.20
2017-10-28T21:27:57.782Z,13.30
2017-10-28T21:30:26.102Z,13.97
2017-10-28T21:32:53.657Z,14.33
2017-10-28T21:35:21.196Z,14.23
2017-10-28T21:37:48.784Z,14.00
2017-10-28T21:40:16.331Z,15.10
2017-10-28T21:42:43.912Z,13.70
2017-10-28T21:45:11.459Z,15.03
2017-10-28T21:47:39.018Z,14.10
2017-10-28T21:50:06.554Z,13.50
2017-10-28T21:52:34.095Z,15.10
2017-10-28T21:55:01.675Z,14.30
2017-10-28T21:57:29.214Z,13.17
2017-10-28T21:59:56.779Z,12.43
2017-10-28T22:02:24.340Z,11.50
2017-10-28T22:04:51.923Z,14.23
2017-10-28T22:07:19.453Z,13.50
2017-10-28T22:09:47.744Z,14.23
2017-10-28T22:12:15.312Z,14.00
2017-10-28T22:14:42.851Z,12.40
2017-10-28T22:17:11.195Z,12.67
2017-10-28T22:19:38.740Z,11.87
2017-10-28T22:22:06.287Z,10.73
2017-10-28T22:24:33.843Z,12.13
2017-10-28T22:27:01.380Z,11.13
2017-10-28T22:29:29.722Z,11.43
2017-10-28T22:31:57.257Z,11.00
2017-10-28T22:34:24.812Z,12.70
2017-10-28T22:36:52.372Z,10.90
2017-10-28T22:39:19.906Z,12.20
2017-10-28T22:41:48.235Z,10.67
2017-10-28T22:44:15.782Z,9.97
2017-10-28T22:46:43.313Z,10.40
2017-10-28T22:49:11.652Z,10.20
2017-10-28T22:51:39.194Z,9.20
2017-10-28T22:54:06.756Z,9.90
2017-10-28T22:56:34.290Z,11.50
2017-10-28T22:59:01.818Z,9.67
2017-10-28T23:01:30.137Z,9.00
2017-10-28T23:03:57.684Z,9.17
2017-10-28T23:06:25.236Z,8.10
2017-10-28T23:08:53.539Z,7.10
2017-10-28T23:11:21.089Z,8.07
2017-10-28T23:13:48.653Z,7.40
2017-10-28T23:16:16.204Z,7.60
2017-10-28T23:18:44.540Z,8.13
2017-10-28T23:21:12.086Z,8.10
2017-10-28T23:23:39.618Z,7.37
2017-10-28T23:26:07.191Z,7.30
2017-10-28T23:28:34.735Z,6.10
2017-10-28T23:31:03.055Z,6.47
2017-10-28T23:33:30.584Z,6.13
2017-10-28T23:35:58.142Z,6.43
2017-10-28T23:38:25.728Z,6.10
2017-10-28T23:40:53.284Z,7.17
2017-10-28T23:43:20.951Z,8.43
2017-10-28T23:45:48.493Z,6.13
2017-10-28T23:48:16.029Z,6.40
2017-10-28T23:50:44.363Z,6.03
2017-10-28T23:53:12.681Z,5.87
2017-10-28T23:55:41.002Z,5.53
2017-10-28T23:58:08.537Z,5.27
